createdAt,value
2019-04-25T00:00:44.648Z,68.15
2019-04-25T00:01:44.783Z,68.05
2019-04-25T00:02:44.780Z,68.25
2019-04-25T00:03:44.781Z,68.66
2019-04-25T00:04:44.715Z,68.45
2019-04-25T00:05:44.758Z,69.06
2019-04-25T00:06:44.960Z,69.17
2019-04-25T00:07:44.961Z,69.17
2019-04-25T00:08:45.304Z,69.06
2019-04-25T00:09:45.256Z,68.59
2019-04-25T00:10:45.400Z,68.96
2019-04-25T00:11:46.654Z,68.89
2019-04-25T00:12:44.609Z,69.09
2019-04-25T00:13:44.479Z,68.79
2019-04-25T00:14:44.514Z,68.96
2019-04-25T00:15:45.802Z,68.96
2019-04-25T00:16:45.208Z,69.09
2019-04-25T00:17:44.541Z,69.50
2019-04-25T00:18:44.437Z,68.79
2019-04-25T00:19:44.430Z,69.09
2019-04-25T00:20:44.691Z,68.76
2019-04-25T00:21:44.640Z,69.09
2019-04-25T00:22:44.848Z,68.79
2019-04-25T00:23:44.983Z,69.30
2019-04-25T00:24:44.955Z,69.20
2019-04-25T00:25:46.737Z,68.99
2019-04-25T00:26:45.192Z,69.30
2019-04-25T00:27:45.980Z,69.09
2019-04-25T00:28:45.290Z,69.30
2019-04-25T00:29:45.703Z,68.99
2019-04-25T00:30:44.669Z,69.30
2019-04-25T00:31:45.100Z,69.33
2019-04-25T00:32:45.263Z,69.20
2019-04-25T00:33:45.303Z,69.23
2019-04-25T00:34:45.557Z,69.33
2019-04-25T00:35:44.659Z,69.23
2019-04-25T00:36:45.555Z,69.43
2019-04-25T00:37:45.479Z,69.74
2019-04-25T00:38:46.481Z,69.64
2019-04-25T00:39:45.315Z,69.64
2019-04-25T00:40:44.727Z,69.53
2019-04-25T00:41:46.048Z,69.53
2019-04-25T00:42:44.895Z,69.87
2019-04-25T00:43:44.161Z,69.64
2019-04-25T00:44:45.052Z,69.64
2019-04-25T00:45:44.563Z,69.46
2019-04-25T00:46:47.828Z,69.57
2019-04-25T00:47:44.728Z,69.77
2019-04-25T00:48:44.317Z,69.77
2019-04-25T00:49:45.191Z,69.57
2019-04-25T00:50:44.588Z,69.97
2019-04-25T00:51:44.542Z,69.49
2019-04-25T00:52:44.848Z,69.77
2019-04-25T00:53:44.634Z,69.90
2019-04-25T00:54:44.212Z,69.80
2019-04-25T00:55:44.347Z,69.80
2019-04-25T00:56:46.047Z,69.60
2019-04-25T00:57:44.783Z,69.49
2019-04-25T00:58:45.171Z,69.80
2019-04-25T00:59:45.359Z,69.90
2019-04-25T01:00:44.869Z,69.80
2019-04-25T01:01:45.196Z,70.01
2019-04-25T01:02:44.167Z,69.93
2019-04-25T01:03:44.503Z,69.60
2019-04-25T01:04:43.944Z,69.63
2019-04-25T01:05:44.462Z,70.04
2019-04-25T01:06:44.036Z,69.84
2019-04-25T01:07:44.381Z,69.93
2019-04-25T01:08:44.241Z,70.24
2019-04-25T01:09:44.311Z,70.04
2019-04-25T01:10:44.423Z,70.04
2019-04-25T01:11:44.330Z,70.04
2019-04-25T01:12:44.582Z,69.53
2019-04-25T01:13:44.576Z,70.24
2019-04-25T01:14:44.244Z,70.24
2019-04-25T01:15:44.830Z,70.34
2019-04-25T01:16:44.956Z,70.45
2019-04-25T01:17:45.258Z,70.78
2019-04-25T01:18:44.707Z,70.55
2019-04-25T01:19:44.966Z,70.45
2019-04-25T01:20:43.745Z,70.78
2019-04-25T01:21:43.997Z,70.65
2019-04-25T01:22:44.146Z,70.58
2019-04-25T01:23:43.718Z,70.99
2019-04-25T01:24:44.006Z,70.68
2019-04-25T01:25:44.669Z,70.38
2019-04-25T01:26:43.930Z,70.38
2019-04-25T01:27:43.671Z,71.19
2019-04-25T01:28:43.970Z,71.19
2019-04-25T01:29:44.494Z,71.70
2019-04-25T01:30:43.909Z,71.30
2019-04-25T01:31:43.605Z,70.78
2019-04-25T01:32:44.877Z,70.78
2019-04-25T01:33:43.578Z,70.78
2019-04-25T01:34:44.253Z,70.78
2019-04-25T01:35:44.886Z,70.68
2019-04-25T01:36:44.317Z,70.38
2019-04-25T01:37:43.866Z,70.68
2019-04-25T01:38:43.546Z,70.61
2019-04-25T01:39:44.167Z,70.99
2019-04-25T01:40:43.936Z,71.30
2019-04-25T01:41:44.168Z,71.53
2019-04-25T01:42:43.910Z,71.80
2019-04-25T01:43:43.746Z,71.60
2019-04-25T01:44:44.093Z,71.53
2019-04-25T01:45:43.859Z,71.23
2019-04-25T01:46:44.205Z,71.63
2019-04-25T01:47:45.420Z,71.23
2019-04-25T01:48:43.462Z,71.43
2019-04-25T01:49:43.918Z,71.73
2019-04-25T01:50:43.809Z,71.36
2019-04-25T01:51:43.778Z,71.73
2019-04-25T01:52:43.508Z,71.63
2019-04-25T01:53:44.124Z,71.73
2019-04-25T01:54:43.737Z,71.53
2019-04-25T01:55:53.609Z,71.73
2019-04-25T01:56:44.440Z,71.77
2019-04-25T01:57:43.736Z,71.84
2019-04-25T01:58:43.902Z,71.43
2019-04-25T01:59:43.880Z,70.92
2019-04-25T02:00:44.910Z,71.33
2019-04-25T02:01:44.023Z,71.33
2019-04-25T02:02:43.568Z,71.12
2019-04-25T02:03:44.197Z,71.02
2019-04-25T02:04:44.338Z,71.12
2019-04-25T02:05:43.851Z,71.02
2019-04-25T02:06:43.455Z,71.02
2019-04-25T02:07:44.415Z,71.02
2019-04-25T02:08:44.018Z,71.26
2019-04-25T02:09:43.613Z,71.06
2019-04-25T02:10:44.009Z,71.46
2019-04-25T02:11:43.929Z,71.06
2019-04-25T02:12:43.633Z,71.46
2019-04-25T02:13:43.798Z,71.06
2019-04-25T02:14:43.582Z,70.95
2019-04-25T02:15:43.341Z,70.95
2019-04-25T02:16:43.983Z,71.06
2019-04-25T02:17:43.983Z,71.56
2019-04-25T02:18:43.586Z,71.36
2019-04-25T02:19:44.178Z,71.26
2019-04-25T02:20:43.678Z,71.36
2019-04-25T02:21:43.465Z,71.46
2019-04-25T02:22:44.153Z,70.85
2019-04-25T02:23:44.153Z,70.37
2019-04-25T02:24:43.708Z,70.65
2019-04-25T02:25:44.266Z,70.85
2019-04-25T02:26:43.772Z,71.39
2019-04-25T02:27:44.203Z,71.29
2019-04-25T02:28:43.747Z,70.89
2019-04-25T02:29:44.702Z,70.89
2019-04-25T02:30:45.368Z,70.57
2019-04-25T02:31:44.964Z,70.89
2019-04-25T02:32:44.221Z,70.89
2019-04-25T02:33:44.264Z,70.89
2019-04-25T02:34:45.337Z,70.34
2019-04-25T02:35:46.332Z,71.09
2019-04-25T02:36:46.459Z,70.78
2019-04-25T02:37:45.038Z,70.89
2019-04-25T02:38:44.214Z,70.98
2019-04-25T02:39:44.779Z,70.48
2019-04-25T02:40:45.241Z,70.57
2019-04-25T02:41:44.507Z,70.27
2019-04-25T02:42:44.250Z,70.78
2019-04-25T02:43:45.089Z,70.68
2019-04-25T02:44:44.541Z,70.57
2019-04-25T02:45:44.221Z,70.48
2019-04-25T02:46:44.922Z,70.37
2019-04-25T02:47:43.785Z,70.78
2019-04-25T02:48:44.156Z,70.48
2019-04-25T02:49:44.639Z,70.57
2019-04-25T02:50:44.087Z,70.98
2019-04-25T02:51:44.973Z,70.78
2019-04-25T02:52:44.411Z,70.92
2019-04-25T02:53:44.635Z,70.61
2019-04-25T02:54:44.775Z,71.12
2019-04-25T02:55:44.653Z,70.61
2019-04-25T02:56:46.404Z,70.61
2019-04-25T02:57:44.696Z,70.72
2019-04-25T02:58:44.262Z,71.12
2019-04-25T02:59:44.869Z,70.51
2019-04-25T03:02:05.709Z,70.81
2019-04-25T03:03:06.799Z,70.92
2019-04-25T03:04:08.566Z,70.40
2019-04-25T03:05:08.111Z,70.61
2019-04-25T03:06:07.504Z,70.72
2019-04-25T03:07:07.439Z,70.75
2019-04-25T03:08:08.282Z,70.54
2019-04-25T03:09:06.475Z,70.61
2019-04-25T03:10:06.170Z,70.61
2019-04-25T03:11:05.883Z,70.72
2019-04-25T03:12:05.845Z,71.05
2019-04-25T03:13:07.969Z,70.92
2019-04-25T03:14:06.575Z,70.64
2019-04-25T03:15:06.685Z,70.51
2019-04-25T03:16:07.695Z,70.40
2019-04-25T03:17:05.184Z,70.44
2019-04-25T03:18:05.767Z,70.64
2019-04-25T03:19:05.997Z,70.85
2019-04-25T03:20:06.691Z,70.61
2019-04-25T03:21:06.250Z,71.15
2019-04-25T03:22:09.195Z,71.05
2019-04-25T03:23:07.003Z,70.44
2019-04-25T03:24:07.986Z,70.54
2019-04-25T03:25:06.959Z,70.75
2019-04-25T03:26:05.816Z,70.85
2019-04-25T03:27:04.886Z,70.85
2019-04-25T03:28:04.981Z,70.75
2019-04-25T03:29:03.869Z,70.75
2019-04-25T03:30:04.405Z,70.85
2019-04-25T03:31:10.618Z,71.05
2019-04-25T03:32:09.283Z,70.75
2019-04-25T03:33:09.409Z,70.85
2019-04-25T03:34:09.371Z,71.15
2019-04-25T03:35:05.567Z,71.36
2019-04-25T03:36:04.889Z,70.75
2019-04-25T03:37:05.232Z,71.09
2019-04-25T03:38:04.537Z,71.15
2019-04-25T03:39:04.273Z,71.15
2019-04-25T03:40:05.171Z,71.19
2019-04-25T03:41:04.835Z,71.39
2019-04-25T03:42:05.038Z,71.36
2019-04-25T03:43:04.835Z,71.15
2019-04-25T03:44:04.546Z,71.29
2019-04-25T03:45:04.707Z,70.95
2019-04-25T03:46:04.939Z,70.98
2019-04-25T03:47:05.874Z,71.50
2019-04-25T03:48:05.298Z,71.39
2019-04-25T03:49:04.929Z,70.54
2019-04-25T03:50:05.598Z,70.88
2019-04-25T03:51:05.398Z,70.54
2019-04-25T03:52:04.992Z,70.68
2019-04-25T03:53:04.531Z,70.88
2019-04-25T03:54:04.868Z,71.19
2019-04-25T03:55:05.140Z,71.09
2019-04-25T03:56:05.099Z,70.98
2019-04-25T03:57:05.269Z,70.98
2019-04-25T03:58:06.650Z,71.09
2019-04-25T03:59:05.851Z,70.68
2019-04-25T04:00:05.942Z,70.88
2019-04-25T04:01:06.603Z,71.09
2019-04-25T04:02:05.603Z,71.09
2019-04-25T04:03:05.701Z,70.47
2019-04-25T04:04:04.569Z,70.98
2019-04-25T04:05:04.834Z,70.88
2019-04-25T04:06:04.330Z,70.98
2019-04-25T04:07:04.426Z,70.57
2019-04-25T04:08:04.283Z,71.22
2019-04-25T04:09:06.485Z,71.19
2019-04-25T04:10:04.489Z,70.78
2019-04-25T04:11:05.010Z,70.88
2019-04-25T04:12:04.321Z,70.78
2019-04-25T04:13:04.214Z,70.98
2019-04-25T04:14:04.906Z,70.98
2019-04-25T04:15:04.715Z,70.78
2019-04-25T04:16:03.333Z,70.78
2019-04-25T04:17:05.080Z,71.29
2019-04-25T04:18:04.240Z,71.19
2019-04-25T04:19:04.006Z,71.09
2019-04-25T04:20:03.947Z,70.68
2019-04-25T04:21:03.206Z,70.98
2019-04-25T04:22:03.109Z,71.29
2019-04-25T04:23:03.204Z,71.12
2019-04-25T04:24:04.006Z,71.19
2019-04-25T04:25:03.764Z,70.78
2019-04-25T04:26:03.321Z,70.88
2019-04-25T04:27:04.244Z,70.81
2019-04-25T04:28:03.792Z,71.19
2019-04-25T04:29:03.041Z,71.19
2019-04-25T04:30:04.106Z,70.98
2019-04-25T04:31:03.697Z,71.29
2019-04-25T04:32:03.082Z,71.29
2019-04-25T04:33:03.626Z,70.78
2019-04-25T04:34:03.772Z,70.92
2019-04-25T04:35:03.496Z,71.09
2019-04-25T04:36:03.769Z,71.39
2019-04-25T04:37:03.700Z,70.98
2019-04-25T04:38:04.149Z,70.98
2019-04-25T04:39:03.860Z,70.68
2019-04-25T04:40:03.618Z,70.78
2019-04-25T04:41:03.846Z,71.09
2019-04-25T04:42:03.846Z,70.57
2019-04-25T04:43:02.354Z,70.68
2019-04-25T04:44:04.024Z,70.27
2019-04-25T04:45:03.603Z,70.47
2019-04-25T04:46:03.869Z,70.47
2019-04-25T04:47:05.023Z,70.27
2019-04-25T04:48:03.296Z,70.68
2019-04-25T04:49:03.778Z,70.68
2019-04-25T04:50:03.883Z,70.17
2019-04-25T04:51:03.409Z,70.17
2019-04-25T04:52:02.305Z,70.47
2019-04-25T04:53:03.840Z,70.47
2019-04-25T04:54:03.441Z,70.17
2019-04-25T04:55:06.449Z,70.06
2019-04-25T04:56:04.259Z,70.27
2019-04-25T04:57:16.671Z,70.17
2019-04-25T04:58:04.266Z,70.06
2019-04-25T04:59:03.711Z,69.93
2019-04-25T05:00:03.672Z,69.86
2019-04-25T05:01:03.601Z,69.62
2019-04-25T05:02:03.336Z,69.52
2019-04-25T05:03:02.111Z,69.42
2019-04-25T05:04:03.870Z,69.62
2019-04-25T05:05:03.615Z,69.52
2019-04-25T05:06:03.662Z,69.21
2019-04-25T05:07:03.601Z,69.21
2019-04-25T05:08:03.784Z,69.32
2019-04-25T05:09:03.588Z,69.11
2019-04-25T05:10:03.322Z,69.11
2019-04-25T05:11:02.006Z,68.67
2019-04-25T05:12:02.059Z,68.60
2019-04-25T05:13:01.994Z,68.91
2019-04-25T05:14:01.987Z,68.26
2019-04-25T05:15:03.695Z,68.19
2019-04-25T05:16:03.162Z,68.67
2019-04-25T05:17:02.030Z,68.67
2019-04-25T05:18:04.065Z,68.47
2019-04-25T05:19:03.652Z,68.77
2019-04-25T05:20:03.455Z,68.67
2019-04-25T05:21:01.971Z,68.47
2019-04-25T05:22:03.546Z,68.16
2019-04-25T05:23:03.173Z,68.37
2019-04-25T05:24:01.872Z,67.72
2019-04-25T05:25:03.442Z,68.23
2019-04-25T05:26:01.867Z,67.62
2019-04-25T05:27:01.854Z,67.41
2019-04-25T05:28:03.559Z,67.01
2019-04-25T05:29:01.833Z,67.62
2019-04-25T05:30:01.845Z,67.52
2019-04-25T05:31:03.379Z,66.80
2019-04-25T05:32:01.780Z,67.01
2019-04-25T05:33:01.786Z,67.11
2019-04-25T05:34:03.503Z,67.11
2019-04-25T05:35:03.377Z,67.01
2019-04-25T05:36:01.829Z,66.80
2019-04-25T05:37:01.804Z,66.88
2019-04-25T05:38:03.361Z,66.97
2019-04-25T05:39:01.725Z,66.47
2019-04-25T05:40:03.358Z,66.77
2019-04-25T05:41:01.780Z,66.57
2019-04-25T05:42:01.704Z,66.97
2019-04-25T05:43:03.219Z,66.67
2019-04-25T05:44:01.656Z,66.67
2019-04-25T05:45:01.632Z,66.77
2019-04-25T05:46:03.275Z,66.74
2019-04-25T05:47:01.738Z,66.74
2019-04-25T05:48:01.646Z,66.85
2019-04-25T05:49:03.499Z,66.85
2019-04-25T05:50:01.601Z,66.64
2019-04-25T05:51:01.577Z,66.54
2019-04-25T05:52:01.569Z,66.64
2019-04-25T05:53:01.569Z,66.33
2019-04-25T05:54:01.533Z,66.30
2019-04-25T05:55:01.539Z,65.59
2019-04-25T05:56:01.527Z,65.80
2019-04-25T05:57:01.537Z,65.59
2019-04-25T05:58:01.557Z,65.49
2019-04-25T05:59:01.517Z,65.69
2019-04-25T06:00:01.480Z,65.89
2019-04-25T06:01:03.294Z,65.69
2019-04-25T06:02:01.457Z,65.49
2019-04-25T06:03:01.466Z,65.59
2019-04-25T06:04:01.438Z,65.59
2019-04-25T06:05:01.432Z,65.46
2019-04-25T06:06:01.422Z,65.89
2019-04-25T06:07:01.397Z,65.49
2019-04-25T06:08:01.391Z,65.46
2019-04-25T06:09:01.373Z,65.77
2019-04-25T06:10:04.149Z,65.36
2019-04-25T06:11:01.384Z,65.05
2019-04-25T06:12:01.331Z,64.95
2019-04-25T06:13:03.477Z,65.33
2019-04-25T06:14:01.304Z,64.72
2019-04-25T06:15:01.299Z,64.81
2019-04-25T06:16:01.315Z,65.33
2019-04-25T06:17:01.297Z,64.61
2019-04-25T06:18:01.294Z,64.31
2019-04-25T06:19:13.017Z,64.72
2019-04-25T06:20:05.629Z,64.69
2019-04-25T06:21:01.275Z,63.67
2019-04-25T06:22:01.304Z,64.18
2019-04-25T06:23:01.229Z,64.28
2019-04-25T06:24:01.246Z,64.38
2019-04-25T06:25:01.181Z,64.48
2019-04-25T06:26:16.006Z,64.38
2019-04-25T06:27:03.785Z,64.38
2019-04-25T06:28:01.234Z,63.36
2019-04-25T06:29:01.185Z,62.96
2019-04-25T06:30:01.185Z,62.96
2019-04-25T06:31:01.148Z,63.36
2019-04-25T06:32:07.854Z,63.36
2019-04-25T06:33:03.336Z,63.84
2019-04-25T06:34:01.124Z,64.04
2019-04-25T06:35:01.069Z,64.15
2019-04-25T06:36:01.062Z,63.33
2019-04-25T06:37:02.460Z,63.02
2019-04-25T06:38:01.072Z,63.43
2019-04-25T06:39:01.047Z,63.40
2019-04-25T06:40:01.044Z,62.90
2019-04-25T06:41:01.031Z,62.90
2019-04-25T06:42:01.063Z,63.28
2019-04-25T06:43:01.007Z,63.37
2019-04-25T06:44:01.010Z,63.28
2019-04-25T06:45:01.006Z,63.14
2019-04-25T06:46:01.957Z,63.24
2019-04-25T06:47:03.392Z,63.45
2019-04-25T06:48:00.929Z,62.53
2019-04-25T06:49:03.425Z,61.41
2019-04-25T06:50:00.956Z,61.99
2019-04-25T06:51:00.938Z,62.20
2019-04-25T06:52:00.992Z,61.39
2019-04-25T06:53:00.893Z,60.98
2019-04-25T06:54:00.884Z,61.36
2019-04-25T06:55:03.305Z,61.25
2019-04-25T06:56:00.865Z,61.02
2019-04-25T06:57:00.825Z,61.16
2019-04-25T06:58:10.158Z,60.14
2019-04-25T06:59:03.478Z,59.50
2019-04-25T07:00:00.837Z,59.70
2019-04-25T07:01:01.140Z,60.11
2019-04-25T07:02:04.181Z,60.39
2019-04-25T07:03:00.789Z,59.78
2019-04-25T07:04:00.774Z,60.28
2019-04-25T07:05:00.757Z,60.39
2019-04-25T07:06:00.723Z,59.99
2019-04-25T07:07:10.496Z,60.08
2019-04-25T07:08:03.210Z,61.00
2019-04-25T07:09:00.719Z,60.77
2019-04-25T07:10:00.796Z,58.54
2019-04-25T07:11:00.724Z,58.13
2019-04-25T07:12:01.027Z,58.13
2019-04-25T07:13:00.669Z,57.53
2019-04-25T07:14:00.684Z,57.20
2019-04-25T07:15:00.655Z,58.03
2019-04-25T07:16:00.623Z,58.00
2019-04-25T07:17:00.696Z,57.50
2019-04-25T07:18:00.642Z,57.60
2019-04-25T07:19:01.094Z,57.40
2019-04-25T07:20:01.395Z,58.41
2019-04-25T07:21:00.601Z,58.00
2019-04-25T07:22:00.558Z,57.70
2019-04-25T07:23:00.621Z,57.40
2019-04-25T07:24:01.033Z,57.07
2019-04-25T07:25:00.566Z,56.76
2019-04-25T07:26:00.559Z,57.07
2019-04-25T07:27:00.621Z,56.86
2019-04-25T07:28:00.518Z,57.07
2019-04-25T07:29:00.515Z,57.37
2019-04-25T07:30:00.542Z,57.37
2019-04-25T07:31:00.451Z,56.96
2019-04-25T07:32:00.455Z,55.95
2019-04-25T07:33:02.019Z,56.94
2019-04-25T07:34:00.436Z,56.23
2019-04-25T07:35:00.436Z,55.93
2019-04-25T07:36:00.445Z,55.93
2019-04-25T07:37:00.464Z,56.23
2019-04-25T07:38:00.587Z,55.62
2019-04-25T07:39:08.190Z,56.13
2019-04-25T07:40:01.372Z,55.73
2019-04-25T07:41:00.377Z,56.00
2019-04-25T07:42:00.399Z,56.00
2019-04-25T07:43:00.340Z,56.10
2019-04-25T07:44:00.324Z,55.60
2019-04-25T07:45:00.425Z,54.69
2019-04-25T07:46:00.312Z,54.46
2019-04-25T07:47:00.394Z,53.96
2019-04-25T07:48:00.295Z,53.85
2019-04-25T07:49:00.277Z,55.16
2019-04-25T07:50:00.242Z,54.16
2019-04-25T07:51:00.305Z,53.93
2019-04-25T07:52:00.247Z,54.16
2019-04-25T07:53:00.292Z,52.23
2019-04-25T07:54:00.219Z,52.54
2019-04-25T07:55:00.238Z,53.34
2019-04-25T07:56:00.186Z,54.36
2019-04-25T07:57:00.192Z,53.25
2019-04-25T07:58:00.394Z,53.34
2019-04-25T07:59:00.171Z,52.44
2019-04-25T08:00:00.151Z,52.44
2019-04-25T08:01:00.126Z,52.03
2019-04-25T08:02:00.121Z,52.74
2019-04-25T08:04:19.626Z,52.64
2019-04-25T08:05:19.496Z,53.32
2019-04-25T08:06:22.041Z,53.22
2019-04-25T08:07:19.518Z,53.52
2019-04-25T08:08:20.269Z,53.00
2019-04-25T08:09:19.499Z,52.49
2019-04-25T08:10:19.527Z,50.98
2019-04-25T08:11:19.447Z,51.58
2019-04-25T08:12:19.457Z,50.57
2019-04-25T08:13:19.451Z,51.07
2019-04-25T08:14:19.468Z,50.98
2019-04-25T08:15:19.412Z,51.68
2019-04-25T08:16:19.411Z,51.81
2019-04-25T08:17:19.383Z,52.01
2019-04-25T08:18:19.379Z,52.09
2019-04-25T08:19:19.366Z,52.11
2019-04-25T08:20:19.342Z,52.82
2019-04-25T08:21:19.418Z,52.72
2019-04-25T08:22:19.308Z,52.01
2019-04-25T08:23:19.299Z,50.90
2019-04-25T08:24:19.313Z,51.10
2019-04-25T08:25:21.104Z,51.81
2019-04-25T08:26:19.341Z,51.78
2019-04-25T08:27:19.300Z,51.40
2019-04-25T08:28:19.275Z,50.87
2019-04-25T08:29:23.078Z,51.07
2019-04-25T08:30:19.260Z,52.09
2019-04-25T08:31:19.253Z,51.07
2019-04-25T08:32:19.225Z,50.98
2019-04-25T08:33:19.233Z,50.37
2019-04-25T08:34:19.182Z,49.96
2019-04-25T08:35:19.208Z,49.76
2019-04-25T08:36:19.234Z,49.56
2019-04-25T08:37:21.127Z,49.05
2019-04-25T08:38:19.136Z,49.66
2019-04-25T08:39:19.165Z,50.27
2019-04-25T08:40:19.139Z,50.57
2019-04-25T08:41:21.542Z,50.37
2019-04-25T08:42:19.132Z,51.45
2019-04-25T08:43:19.118Z,50.65
2019-04-25T08:44:19.089Z,50.75
2019-04-25T08:45:19.131Z,49.64
2019-04-25T08:46:19.142Z,49.64
2019-04-25T08:47:19.114Z,49.84
2019-04-25T08:48:19.057Z,50.75
2019-04-25T08:49:19.035Z,49.82
2019-04-25T08:50:28.841Z,49.72
2019-04-25T08:51:20.067Z,49.92
2019-04-25T08:52:19.073Z,50.62
2019-04-25T08:53:19.013Z,50.12
2019-04-25T08:54:18.984Z,49.59
2019-04-25T08:55:19.018Z,48.38
2019-04-25T08:56:18.965Z,49.39
2019-04-25T08:57:18.923Z,49.19
2019-04-25T08:58:18.927Z,49.39
2019-04-25T08:59:18.949Z,49.59
2019-04-25T09:00:18.939Z,49.39
2019-04-25T09:01:18.971Z,48.89
2019-04-25T09:02:18.906Z,49.77
2019-04-25T09:03:18.859Z,49.97
2019-04-25T09:04:18.909Z,50.57
2019-04-25T09:05:18.854Z,49.57
2019-04-25T09:06:18.850Z,49.37
2019-04-25T09:07:21.410Z,48.26
2019-04-25T09:08:19.306Z,49.67
2019-04-25T09:09:19.169Z,49.37
2019-04-25T09:10:19.248Z,49.87
2019-04-25T09:11:18.816Z,48.66
2019-04-25T09:12:18.807Z,48.56
2019-04-25T09:13:18.818Z,48.36
2019-04-25T09:14:19.739Z,49.67
2019-04-25T09:15:18.795Z,49.27
2019-04-25T09:16:18.780Z,48.89
2019-04-25T09:17:18.770Z,48.16
2019-04-25T09:18:18.748Z,49.27
2019-04-25T09:19:18.732Z,49.77
2019-04-25T09:20:18.707Z,49.07
2019-04-25T09:21:18.704Z,48.86
2019-04-25T09:22:18.743Z,49.37
2019-04-25T09:23:18.683Z,49.37
2019-04-25T09:24:19.697Z,49.57
2019-04-25T09:25:19.482Z,49.77
2019-04-25T09:26:18.920Z,49.29
2019-04-25T09:27:18.667Z,49.07
2019-04-25T09:28:18.625Z,49.37
2019-04-25T09:29:19.887Z,48.86
2019-04-25T09:30:18.619Z,49.37
2019-04-25T09:31:18.572Z,48.86
2019-04-25T09:32:18.581Z,48.96
2019-04-25T09:33:18.582Z,48.86
2019-04-25T09:34:18.525Z,49.37
2019-04-25T09:35:20.161Z,48.86
2019-04-25T09:36:23.641Z,49.27
2019-04-25T09:37:19.541Z,48.56
2019-04-25T09:38:18.505Z,48.16
2019-04-25T09:39:18.476Z,48.86
2019-04-25T09:40:18.523Z,49.07
2019-04-25T09:41:18.474Z,48.96
2019-04-25T09:42:18.493Z,49.16
2019-04-25T09:43:18.443Z,49.87
2019-04-25T09:44:18.439Z,49.57
2019-04-25T09:45:18.476Z,49.57
2019-04-25T09:46:18.451Z,50.57
2019-04-25T09:47:18.398Z,49.97
2019-04-25T09:48:18.934Z,50.45
2019-04-25T09:49:18.546Z,49.44
2019-04-25T09:50:18.839Z,49.44
2019-04-25T09:51:18.379Z,48.94
2019-04-25T09:52:21.205Z,47.63
2019-04-25T09:53:23.560Z,48.14
2019-04-25T09:54:19.357Z,48.14
2019-04-25T09:55:18.314Z,47.74
2019-04-25T09:56:18.294Z,48.41
2019-04-25T09:57:18.315Z,48.74
2019-04-25T09:58:18.324Z,49.52
2019-04-25T09:59:27.124Z,48.32
2019-04-25T10:00:19.250Z,48.01
2019-04-25T10:01:18.267Z,47.71
2019-04-25T10:02:18.233Z,48.01
2019-04-25T10:03:18.249Z,48.52
2019-04-25T10:04:18.210Z,48.52
2019-04-25T10:05:18.201Z,48.32
2019-04-25T10:06:18.181Z,48.14
2019-04-25T10:07:18.188Z,49.62
2019-04-25T10:08:18.203Z,49.75
2019-04-25T10:09:18.156Z,49.35
2019-04-25T10:10:18.144Z,49.55
2019-04-25T10:11:18.113Z,49.32
2019-04-25T10:12:18.121Z,49.55
2019-04-25T10:13:18.148Z,49.44
2019-04-25T10:14:18.098Z,49.22
2019-04-25T10:15:18.089Z,49.22
2019-04-25T10:16:18.063Z,50.63
2019-04-25T10:17:18.050Z,49.50
2019-04-25T10:18:18.088Z,49.42
2019-04-25T10:19:18.041Z,49.50
2019-04-25T10:20:18.021Z,48.90
2019-04-25T10:21:18.029Z,49.80
2019-04-25T10:22:18.007Z,48.90
2019-04-25T10:23:18.063Z,49.60
2019-04-25T10:24:17.973Z,48.79
2019-04-25T10:25:39.574Z,48.79
2019-04-25T10:26:18.000Z,49.50
2019-04-25T10:27:17.973Z,49.40
2019-04-25T10:28:17.979Z,49.40
2019-04-25T10:29:17.911Z,49.10
2019-04-25T10:30:23.148Z,49.22
2019-04-25T10:31:17.891Z,49.30
2019-04-25T10:32:17.946Z,49.42
2019-04-25T10:33:17.902Z,49.32
2019-04-25T10:34:17.885Z,50.56
2019-04-25T10:35:17.862Z,49.93
2019-04-25T10:36:17.861Z,49.85
2019-04-25T10:37:17.917Z,49.95
2019-04-25T10:38:22.254Z,49.24
2019-04-25T10:39:17.993Z,49.44
2019-04-25T10:40:17.795Z,49.44
2019-04-25T10:41:17.786Z,49.35
2019-04-25T10:42:17.777Z,49.55
2019-04-25T10:43:17.805Z,49.95
2019-04-25T10:44:17.808Z,50.25
2019-04-25T10:45:23.347Z,50.35
2019-04-25T10:46:18.759Z,50.76
2019-04-25T10:47:17.728Z,50.33
2019-04-25T10:48:17.731Z,49.85
2019-04-25T10:49:17.697Z,49.42
2019-04-25T10:50:17.684Z,49.32
2019-04-25T10:51:17.715Z,49.60
2019-04-25T10:52:17.691Z,50.60
2019-04-25T10:53:17.721Z,49.50
2019-04-25T10:54:18.200Z,49.50
2019-04-25T10:55:17.659Z,49.40
2019-04-25T10:56:17.618Z,48.79
2019-04-25T10:57:17.612Z,49.57
2019-04-25T10:58:17.625Z,49.37
2019-04-25T10:59:17.582Z,49.07
2019-04-25T11:00:17.612Z,48.25
2019-04-25T11:01:18.193Z,48.85
2019-04-25T11:02:17.554Z,48.35
2019-04-25T11:03:17.589Z,47.74
2019-04-25T11:04:17.579Z,48.35
2019-04-25T11:05:17.557Z,48.35
2019-04-25T11:06:17.523Z,49.05
2019-04-25T11:07:17.566Z,48.95
2019-04-25T11:08:17.518Z,48.55
2019-04-25T11:09:17.497Z,47.64
2019-04-25T11:10:17.504Z,48.65
2019-04-25T11:11:17.452Z,47.94
2019-04-25T11:12:17.466Z,49.15
2019-04-25T11:13:17.468Z,49.65
2019-04-25T11:14:17.451Z,48.25
2019-04-25T11:15:18.460Z,49.35
2019-04-25T11:16:17.397Z,50.05
2019-04-25T11:17:17.386Z,50.15
2019-04-25T11:18:17.393Z,49.05
2019-04-25T11:19:17.401Z,48.75
2019-04-25T11:20:17.355Z,49.25
2019-04-25T11:21:17.388Z,49.35
2019-04-25T11:22:17.333Z,49.05
2019-04-25T11:23:17.350Z,49.45
2019-04-25T11:24:17.312Z,49.45
2019-04-25T11:25:17.314Z,49.35
2019-04-25T11:26:17.287Z,48.93
2019-04-25T11:27:17.289Z,48.14
2019-04-25T11:28:17.294Z,48.52
2019-04-25T11:29:17.257Z,48.90
2019-04-25T11:30:17.248Z,48.22
2019-04-25T11:31:17.297Z,47.52
2019-04-25T11:32:19.677Z,48.10
2019-04-25T11:33:17.214Z,46.19
2019-04-25T11:34:17.695Z,45.99
2019-04-25T11:35:17.190Z,46.89
2019-04-25T11:36:17.176Z,46.59
2019-04-25T11:37:17.179Z,47.00
2019-04-25T11:38:17.166Z,46.09
2019-04-25T11:39:17.174Z,45.69
2019-04-25T11:40:17.133Z,46.09
2019-04-25T11:41:17.125Z,45.79
2019-04-25T11:42:17.129Z,47.39
2019-04-25T11:43:17.104Z,47.00
2019-04-25T11:44:17.124Z,47.19
2019-04-25T11:45:17.081Z,46.09
2019-04-25T11:46:17.071Z,45.87
2019-04-25T11:47:17.060Z,44.46
2019-04-25T11:48:17.054Z,45.37
2019-04-25T11:49:17.058Z,45.89
2019-04-25T11:50:17.031Z,45.49
2019-04-25T11:51:17.021Z,45.57
2019-04-25T11:52:26.951Z,44.56
2019-04-25T11:53:20.095Z,43.96
2019-04-25T11:54:17.006Z,44.67
2019-04-25T11:55:17.001Z,43.86
2019-04-25T11:56:16.971Z,44.04
2019-04-25T11:57:16.985Z,43.94
2019-04-25T11:58:16.984Z,44.04
2019-04-25T11:59:16.971Z,43.54
2019-04-25T12:00:22.195Z,43.54
2019-04-25T12:01:16.934Z,43.24
2019-04-25T12:02:16.893Z,43.14
2019-04-25T12:03:16.899Z,43.44
2019-04-25T12:04:16.900Z,42.33
2019-04-25T12:05:16.886Z,42.63
2019-04-25T12:06:16.852Z,43.22
2019-04-25T12:07:16.863Z,43.52
2019-04-25T12:08:16.845Z,43.62
2019-04-25T12:09:16.848Z,44.12
2019-04-25T12:10:16.829Z,43.32
2019-04-25T12:11:16.802Z,43.22
2019-04-25T12:12:16.824Z,43.02
2019-04-25T12:13:16.786Z,42.82
2019-04-25T12:14:16.799Z,42.61
2019-04-25T12:15:16.805Z,42.32
2019-04-25T12:16:16.770Z,41.51
2019-04-25T12:17:17.913Z,42.32
2019-04-25T12:18:16.754Z,42.11
2019-04-25T12:19:16.718Z,42.32
2019-04-25T12:20:16.721Z,43.22
2019-04-25T12:21:16.724Z,43.22
2019-04-25T12:22:16.692Z,42.44
2019-04-25T12:23:16.675Z,43.34
2019-04-25T12:24:17.749Z,43.04
2019-04-25T12:25:16.670Z,42.03
2019-04-25T12:26:16.634Z,43.14
2019-04-25T12:27:16.627Z,43.84
2019-04-25T12:28:16.652Z,43.54
2019-04-25T12:29:16.600Z,42.24
2019-04-25T12:30:16.613Z,43.24
2019-04-25T12:31:18.176Z,43.24
2019-04-25T12:32:16.570Z,42.94
2019-04-25T12:33:20.988Z,43.34
2019-04-25T12:34:17.243Z,42.91
2019-04-25T12:35:16.742Z,42.02
2019-04-25T12:36:16.529Z,41.93
2019-04-25T12:37:16.514Z,42.33
2019-04-25T12:38:20.408Z,42.83
2019-04-25T12:39:16.548Z,43.24
2019-04-25T12:40:16.480Z,43.24
2019-04-25T12:41:16.471Z,43.14
2019-04-25T12:42:16.472Z,43.24
2019-04-25T12:43:16.451Z,43.52
2019-04-25T12:44:16.445Z,43.72
2019-04-25T12:45:16.457Z,43.42
2019-04-25T12:46:16.415Z,43.12
2019-04-25T12:47:16.982Z,43.50
2019-04-25T12:48:16.428Z,42.80
2019-04-25T12:49:16.384Z,42.30
2019-04-25T12:50:18.656Z,42.60
2019-04-25T12:51:16.367Z,41.60
2019-04-25T12:52:16.348Z,41.89
2019-04-25T12:53:31.023Z,42.07
2019-04-25T12:54:17.342Z,41.79
2019-04-25T12:55:16.340Z,42.30